Disclaimer

Please do not use the information listed here in-flight or in-navigation, as they are not provided to us by the airports but are provided by volunteers, so they might be outdated.

Search


Regions


Airport information page

Radio informations:
Aerodrome flight information system (AFIS) - 118.7 MHz

Airport informations:
Latitude: 25° 02' 17.00" S
Longitude: 046° 57' 22.00" E
Elevation: 29 feet - 9 meters
Operating hours: Remarks
Operating agency: Civil government, landing fees and diplomatic clearance may be required
Timezone: UTC+3
Fuel: 100/130 octane gasoline, leaded, MIL-L-5572F (GREEN)

Jet fuel avaiable but type is unknown.

Runway information:
08/26 - 4916 x 98 feet< - >1498 x 30 meters

Recent METARs:
FMSD 130300Z 00000KT 99999 SCT020 SCT033 25/25 Q1015
FMSD 130300Z 00000KT 99999 SCT020 SCT033 25/25 Q1015
FMSD 130400Z 00000KT 9999 FEW020 SCT040 26/25 Q1015

Airport on the map: